BWI weather

Baltimore/Washington International Thurgood Marshall Airport
Baltimore, Maryland, United States

Public forecast

Using degrees Fahrenheit for public forecast. Weather courtesy of forecast.io.

METAR (pilot weather report)

Retrieved 2017/09/25 06:54 UTC (20 minutes ago):

KBWI 250654Z 00000KT 10SM SCT250 19/19 A3002 RMK AO2 SLP163 T01940189

TAF (pilot weather forecast)

Retrieved 2017/09/25 06:42 UTC (32 minutes ago):

TAF KBWI 250541Z 2506/2612 VRB03KT P6SM FEW250 FM251700 08006KT P6SM FEW060 FEW250 FM260000 12006KT P6SM FEW060 FEW250 FM260800 05004KT P6SM FEW040 SCT200